.
WxDataArchive / Data Records for 2008-11-03
2008-11-02 November 2008 2008-11-04

Data Records for Monday, 03 November 2008

Time	Temp	Chill	HIndex	Humid	Dewpt	 Wind 	HiWind	WindDir	Rain 	Barom 
-----	----	-----	------	-----	-----	------	------	-------	-----	----- 
00:00	54.7	54.7	54.7	81	49.0	0	0	---	0.00	30.161 
00:05	54.8	54.8	54.8	80	48.7	0	0	---	0.00	30.155 
00:10	55.0	55.0	55.0	80	48.9	0	0	---	0.00	30.155 
00:15	55.1	55.1	55.1	79	48.7	0	0	---	0.00	30.158 
00:20	55.3	55.3	55.3	79	48.9	0	0	---	0.00	30.160 
00:25	55.3	55.3	55.3	79	48.9	0	0	---	0.00	30.161 
00:30	55.3	55.3	55.3	79	48.9	0	0	---	0.00	30.159 
00:35	55.3	55.3	55.3	79	48.9	0	0	---	0.00	30.158 
00:40	55.1	55.1	55.1	78	48.4	0	0	---	0.00	30.156 
00:45	55.1	55.1	55.1	78	48.4	0	0	---	0.00	30.156 
00:50	55.1	55.1	55.1	78	48.4	0	1	112	0.00	30.158 
00:55	55.1	55.1	55.1	78	48.4	0	0	---	0.00	30.156 
01:00	55.1	55.1	55.1	78	48.4	0	0	---	0.00	30.158 
01:05	55.1	55.1	55.1	78	48.4	0	1	112	0.00	30.157 
01:10	55.1	55.1	55.1	78	48.4	0	0	---	0.00	30.156 
01:15	55.3	55.3	55.3	78	48.6	0	0	---	0.00	30.157 
01:20	55.3	55.3	55.3	78	48.6	0	1	112	0.00	30.156 
01:25	55.4	55.4	55.4	77	48.3	0	1	112	0.00	30.158 
01:30	55.6	55.6	55.6	77	48.5	0	1	112	0.00	30.156 
01:35	55.7	55.7	55.7	77	48.6	0	1	112	0.00	30.155 
01:40	55.7	55.7	55.7	76	48.3	0	1	112	0.00	30.157 
01:45	55.9	55.9	55.9	76	48.4	0	1	112	0.00	30.156 
01:50	55.9	55.9	55.9	75	48.1	0	2	225	0.00	30.159 
01:55	56.0	56.0	56.0	75	48.2	0	2	225	0.00	30.159 
02:00	56.2	56.2	56.2	74	48.0	0	3	225	0.00	30.163 
02:05	56.2	56.2	56.2	74	48.0	0	1	225	0.00	30.161 
02:10	56.2	56.2	56.2	74	48.0	0	2	225	0.00	30.162 
02:15	56.2	56.2	56.2	74	48.0	0	1	225	0.00	30.163 
02:20	56.0	56.0	56.0	74	47.8	0	1	225	0.00	30.164 
02:25	56.0	56.0	56.0	74	47.8	0	0	---	0.00	30.165 
02:30	55.9	55.9	55.9	74	47.7	0	1	225	0.00	30.166 
02:35	55.7	55.7	55.7	74	47.5	0	0	---	0.00	30.166 
02:40	55.6	55.6	55.6	74	47.4	0	1	225	0.00	30.166 
02:45	55.4	55.4	55.4	75	47.6	0	1	225	0.00	30.168 
02:50	55.4	55.4	55.4	75	47.6	0	1	225	0.00	30.168 
02:55	55.3	55.3	55.3	75	47.5	0	1	225	0.00	30.168 
03:00	55.4	55.4	55.4	74	47.3	0	1	225	0.00	30.168 
03:05	55.6	55.6	55.6	74	47.4	0	1	225	0.00	30.168 
03:10	55.6	55.6	55.6	74	47.4	0	2	225	0.00	30.166 
03:15	55.7	55.7	55.7	74	47.5	0	1	225	0.00	30.165 
03:20	55.7	55.7	55.7	74	47.5	0	1	225	0.00	30.166 
03:25	55.7	55.7	55.7	73	47.2	0	1	225	0.00	30.167 
03:30	55.9	55.9	55.9	73	47.4	0	1	225	0.00	30.166 
03:35	55.9	55.9	55.9	73	47.4	0	1	225	0.00	30.166 
03:40	55.9	55.9	55.9	72	47.0	0	2	225	0.00	30.166 
03:45	56.0	56.0	56.0	72	47.1	0	3	270	0.00	30.166 
03:50	56.0	56.0	56.0	72	47.1	0	1	270	0.00	30.166 
03:55	56.0	56.0	56.0	72	47.1	0	3	270	0.00	30.165 
04:00	55.9	55.9	55.9	72	47.0	0	1	270	0.00	30.164 
04:05	55.9	55.9	55.9	72	47.0	0	2	270	0.00	30.164 
04:10	55.9	55.9	55.9	71	46.6	1	3	248	0.00	30.165 
04:15	56.0	56.0	56.0	71	46.7	1	4	248	0.00	30.166 
04:20	56.0	56.0	56.0	71	46.7	0	3	248	0.00	30.167 
04:25	56.2	56.2	56.2	70	46.5	0	3	248	0.00	30.166 
04:30	56.2	56.2	56.2	70	46.5	0	3	248	0.00	30.165 
04:35	56.2	56.2	56.2	70	46.5	0	2	248	0.00	30.166 
04:40	56.2	56.2	56.2	69	46.2	0	3	248	0.00	30.168 
04:45	56.3	56.3	56.3	69	46.3	0	2	248	0.00	30.169 
04:50	56.5	56.5	56.5	69	46.5	0	3	248	0.00	30.172 
04:55	56.5	56.5	56.5	69	46.5	0	3	248	0.00	30.173 
05:00	56.6	56.6	56.6	68	46.2	0	2	248	0.00	30.173 
05:05	56.7	56.7	56.7	68	46.3	0	2	248	0.00	30.177 
05:10	56.7	56.7	56.7	68	46.3	1	4	248	0.00	30.179 
05:15	56.7	56.7	56.7	68	46.3	0	3	248	0.00	30.179 
05:20	56.7	56.7	56.7	67	45.9	0	2	270	0.00	30.180 
05:25	56.7	56.7	56.7	67	45.9	1	4	248	0.00	30.181 
05:30	56.9	56.9	56.9	67	46.1	0	2	270	0.00	30.181 
05:35	56.7	56.7	56.7	67	45.9	0	2	248	0.00	30.181 
05:40	56.7	56.7	56.7	67	45.9	0	3	248	0.00	30.182 
05:45	56.7	56.7	56.7	67	45.9	0	1	248	0.00	30.181 
05:50	56.5	56.5	56.5	68	46.1	0	1	248	0.00	30.182 
05:55	56.3	56.3	56.3	68	45.9	0	1	248	0.00	30.185 
06:00	56.2	56.2	56.2	69	46.2	0	0	---	0.00	30.187 
06:05	56.0	56.0	56.0	69	46.0	0	0	---	0.00	30.191 
06:10	55.9	55.9	55.9	69	45.9	0	1	248	0.00	30.192 
06:15	55.7	55.7	55.7	69	45.7	0	0	---	0.00	30.193 
06:20	55.7	55.7	55.7	69	45.7	0	1	248	0.00	30.193 
06:25	55.9	55.9	55.9	69	45.9	0	1	248	0.00	30.194 
06:30	56.0	56.0	56.0	69	46.0	0	1	248	0.00	30.192 
06:35	56.0	56.0	56.0	69	46.0	0	2	248	0.00	30.187 
06:40	56.0	56.0	56.0	69	46.0	0	1	248	0.00	30.190 
06:45	56.0	56.0	56.0	68	45.6	0	3	248	0.00	30.189 
06:50	55.9	55.9	55.9	69	45.9	0	1	248	0.00	30.189 
06:55	55.7	55.7	55.7	69	45.7	0	1	248	0.00	30.193 
07:00	55.6	55.6	55.6	69	45.6	0	1	248	0.00	30.193 
07:05	55.4	55.4	55.4	69	45.4	0	3	248	0.00	30.196 
07:10	55.4	55.4	55.4	69	45.4	0	1	248	0.00	30.198 
07:15	55.3	55.3	55.3	69	45.3	0	1	248	0.00	30.199 
07:20	55.1	55.1	55.1	70	45.5	0	1	248	0.00	30.199 
07:25	55.0	55.0	55.0	70	45.4	0	3	248	0.00	30.200 
07:30	55.0	55.0	55.0	71	45.8	0	1	248	0.00	30.201 
07:35	54.8	54.8	54.8	71	45.6	0	1	248	0.00	30.202 
07:40	55.0	55.0	55.0	71	45.8	0	1	248	0.00	30.206 
07:45	55.1	55.1	55.1	70	45.5	0	2	248	0.00	30.213 
07:50	55.3	55.3	55.3	70	45.7	0	3	248	0.00	30.214 
07:55	55.6	55.6	55.6	70	46.0	0	1	248	0.00	30.213 
08:00	55.6	55.6	55.6	70	46.0	0	1	248	0.00	30.212 
08:05	55.7	55.7	55.7	70	46.1	0	1	248	0.00	30.214 
08:10	55.9	55.9	55.9	69	45.9	0	2	248	0.00	30.215 
08:15	56.0	56.0	56.0	70	46.4	0	1	270	0.00	30.215 
08:20	56.5	56.5	56.5	69	46.5	0	2	225	0.00	30.216 
08:25	57.0	57.0	57.0	68	46.5	1	2	248	0.00	30.216 
08:30	57.5	57.5	57.5	66	46.2	1	4	248	0.00	30.213 
08:35	58.0	58.0	58.0	65	46.3	1	4	248	0.00	30.212 
08:40	58.1	58.1	58.1	64	46.0	1	4	248	0.00	30.215 
08:45	58.3	58.3	58.3	64	46.2	1	2	248	0.00	30.215 
08:50	58.4	58.4	58.4	64	46.3	2	9	248	0.00	30.213 
08:55	58.7	58.7	58.7	64	46.6	2	6	248	0.00	30.215 
09:00	59.2	59.2	59.2	63	46.6	1	3	248	0.00	30.214 
09:05	59.6	59.6	59.6	61	46.1	1	6	248	0.00	30.215 
09:10	59.9	59.9	59.9	61	46.4	1	6	248	0.00	30.215 
09:15	59.9	59.9	59.9	60	46.0	2	5	248	0.00	30.214 
09:20	59.9	59.9	59.9	62	46.8	0	2	225	0.00	30.214 
09:25	60.1	60.1	60.1	61	46.6	1	3	248	0.00	30.213 
09:30	60.2	60.2	60.2	62	47.1	0	4	248	0.00	30.213 
09:35	60.4	60.4	60.4	60	46.4	2	5	248	0.00	30.213 
09:40	60.4	60.4	60.4	61	46.9	1	3	248	0.00	30.207 
09:45	60.7	60.7	60.7	59	46.3	2	6	248	0.00	30.208 
09:50	60.9	60.9	60.9	59	46.5	1	2	248	0.00	30.210 
09:55	61.2	61.2	61.2	59	46.8	1	6	248	0.00	30.212 
10:00	61.3	61.3	61.3	59	46.8	1	3	248	0.00	30.210 
10:05	61.5	61.5	61.5	58	46.6	1	5	248	0.00	30.210 
10:10	61.6	61.6	61.6	59	47.1	1	3	248	0.00	30.208 
10:15	62.0	62.0	62.0	58	47.0	1	3	248	0.00	30.213 
10:20	62.4	62.4	62.4	57	47.0	1	6	248	0.00	30.212 
10:25	62.6	62.6	62.6	57	47.1	2	5	248	0.00	30.212 
10:30	62.4	62.4	62.4	57	47.0	1	5	248	0.00	30.212 
10:35	62.4	62.4	62.4	58	47.4	1	2	248	0.00	30.212 
10:40	62.7	62.7	62.7	58	47.7	1	5	248	0.00	30.210 
10:45	63.2	63.2	63.2	58	48.2	1	4	248	0.00	30.208 
10:50	63.7	63.7	63.7	56	47.7	1	5	248	0.00	30.203 
10:55	64.0	64.0	64.0	56	48.0	2	5	248	0.00	30.200 
11:00	64.3	64.3	64.3	55	47.8	1	6	270	0.00	30.199 
11:05	64.8	64.8	64.8	55	48.2	2	6	270	0.00	30.194 
11:10	65.3	65.3	65.3	54	48.2	2	4	248	0.00	30.194 
11:15	65.8	65.8	65.8	53	48.2	1	6	248	0.00	30.194 
11:20	66.0	66.0	66.0	52	47.9	2	5	248	0.00	30.194 
11:25	66.3	66.3	66.3	53	48.6	1	4	248	0.00	30.194 
11:30	66.6	66.6	66.6	51	47.9	3	9	248	0.00	30.191 
11:35	67.1	67.1	67.1	52	48.9	2	7	248	0.00	30.190 
11:40	67.4	67.4	67.4	51	48.6	2	5	248	0.00	30.189 
11:45	67.8	67.8	67.8	51	49.0	2	5	248	0.00	30.184 
11:50	67.8	67.8	67.8	50	48.5	2	5	248	0.00	30.183 
11:55	68.1	68.1	68.1	50	48.7	3	9	248	0.00	30.182 
12:00	68.4	68.4	68.4	50	49.0	2	7	248	0.00	30.181 
12:05	68.8	68.8	68.8	49	48.8	2	8	248	0.00	30.177 
12:10	68.8	68.8	68.8	49	48.8	2	9	248	0.00	30.174 
12:15	68.9	68.9	68.9	50	49.5	2	5	248	0.00	30.173 
12:20	69.3	69.3	69.3	48	48.8	2	6	248	0.00	30.172 
12:25	69.4	69.4	69.4	48	48.8	3	6	248	0.00	30.173 
12:30	69.3	69.3	69.3	48	48.8	2	5	248	0.00	30.171 
12:35	69.1	69.1	69.1	50	49.7	0	3	248	0.00	30.171 
12:40	69.6	69.6	69.6	48	49.0	1	3	248	0.00	30.170 
12:45	69.9	69.9	69.9	48	49.3	2	10	248	0.00	30.168 
12:50	69.9	69.9	69.9	48	49.3	2	4	248	0.00	30.167 
12:55	69.9	69.9	69.9	47	48.7	2	7	248	0.00	30.166 
13:00	69.8	69.8	69.8	49	49.8	1	4	248	0.00	30.166 
13:05	69.9	69.9	69.9	48	49.3	1	5	248	0.00	30.162 
13:10	70.1	70.1	70.1	47	48.9	2	6	248	0.00	30.161 
13:15	70.3	70.3	70.3	48	49.7	2	6	248	0.00	30.160 
13:20	70.4	70.4	70.4	47	49.2	1	4	248	0.00	30.158 
13:25	70.4	70.4	70.4	47	49.2	0	3	248	0.00	30.157 
13:30	70.1	70.1	70.1	48	49.5	3	7	248	0.00	30.156 
13:35	69.9	69.9	69.9	48	49.3	1	6	248	0.00	30.155 
13:40	70.3	70.3	70.3	48	49.7	1	3	248	0.00	30.154 
13:45	70.9	70.9	70.9	46	49.1	1	4	248	0.00	30.152 
13:50	71.3	71.3	71.3	46	49.4	1	5	248	0.00	30.151 
13:55	71.6	71.6	71.6	44	48.5	1	4	248	0.00	30.145 
14:00	71.6	71.6	71.6	44	48.5	1	4	248	0.00	30.143 
14:05	71.5	71.5	71.5	45	49.0	2	6	270	0.00	30.145 
14:10	71.3	71.3	71.3	45	48.8	2	6	270	0.00	30.147 
14:15	71.5	71.5	71.5	46	49.6	2	5	248	0.00	30.142 
14:20	71.6	71.6	71.6	43	47.9	2	9	248	0.00	30.141 
14:25	71.5	71.5	71.5	43	47.8	1	4	225	0.00	30.141 
14:30	71.3	71.3	71.3	44	48.2	1	5	270	0.00	30.140 
14:35	71.3	71.3	71.3	44	48.2	1	5	248	0.00	30.139 
14:40	71.3	71.3	71.3	44	48.2	1	4	248	0.00	30.138 
14:45	71.6	71.6	71.6	43	47.9	1	4	248	0.00	30.136 
14:50	71.5	71.5	71.5	41	46.5	2	7	248	0.00	30.137 
14:55	71.6	71.6	71.6	42	47.3	1	4	248	0.00	30.135 
15:00	72.0	72.0	72.0	41	47.0	3	10	248	0.00	30.134 
15:05	72.1	72.1	72.1	42	47.7	1	3	248	0.00	30.133 
15:10	72.1	72.1	72.1	42	47.7	1	4	248	0.00	30.134 
15:15	72.0	72.0	72.0	41	47.0	1	5	248	0.00	30.132 
15:20	72.0	72.0	72.0	40	46.3	2	6	248	0.00	30.134 
15:25	71.8	71.8	71.8	40	46.2	2	5	248	0.00	30.133 
15:30	71.8	71.8	71.8	40	46.2	3	6	248	0.00	30.134 
15:35	71.6	71.6	71.6	40	46.0	2	5	248	0.00	30.135 
15:40	71.6	71.6	71.6	41	46.6	1	4	248	0.00	30.133 
15:45	71.6	71.6	71.6	41	46.6	0	3	248	0.00	30.135 
15:50	71.5	71.5	71.5	41	46.5	1	6	248	0.00	30.135 
15:55	71.1	71.1	71.1	41	46.2	2	5	248	0.00	30.137 
16:00	70.9	70.9	70.9	42	46.6	1	4	248	0.00	30.137 
16:05	70.9	70.9	70.9	42	46.6	1	4	248	0.00	30.135 
16:10	70.8	70.8	70.8	43	47.2	1	5	68	0.00	30.136 
16:15	70.6	70.6	70.6	43	47.0	1	4	270	0.00	30.135 
16:20	70.4	70.4	70.4	42	46.2	1	6	248	0.00	30.137 
16:25	70.4	70.4	70.4	42	46.2	1	5	248	0.00	30.135 
16:30	70.4	70.4	70.4	43	46.8	0	2	248	0.00	30.135 
16:35	70.3	70.3	70.3	43	46.7	0	2	248	0.00	30.135 
16:40	69.9	69.9	69.9	44	47.0	0	3	248	0.00	30.135 
16:45	69.6	69.6	69.6	44	46.7	0	2	248	0.00	30.136 
16:50	69.4	69.4	69.4	44	46.5	0	3	248	0.00	30.137 
16:55	69.1	69.1	69.1	43	45.7	1	3	248	0.00	30.138 
17:00	68.9	68.9	68.9	43	45.5	0	2	248	0.00	30.138 
17:05	68.6	68.6	68.6	44	45.8	0	3	248	0.00	30.140 
17:10	68.3	68.3	68.3	45	46.1	0	2	248	0.00	30.141 
17:15	67.9	67.9	67.9	45	45.8	0	1	248	0.00	30.140 
17:20	67.4	67.4	67.4	46	45.9	0	1	248	0.00	30.141 
17:25	66.9	66.9	66.9	46	45.4	0	0	---	0.00	30.144 
17:30	66.4	66.4	66.4	47	45.5	0	0	---	0.00	30.144 
17:35	66.0	66.0	66.0	47	45.2	0	0	---	0.00	30.145 
17:40	65.5	65.5	65.5	48	45.3	0	0	---	0.00	30.146 
17:45	65.2	65.2	65.2	49	45.6	0	0	---	0.00	30.149 
17:50	64.7	64.7	64.7	49	45.1	0	0	---	0.00	30.150 
17:55	64.3	64.3	64.3	50	45.3	0	0	---	0.00	30.150 
18:00	64.0	64.0	64.0	51	45.5	0	0	---	0.00	30.155 
18:05	63.7	63.7	63.7	51	45.2	0	0	---	0.00	30.157 
18:10	63.4	63.4	63.4	52	45.5	0	0	---	0.00	30.161 
18:15	63.1	63.1	63.1	52	45.2	0	0	---	0.00	30.162 
18:20	62.7	62.7	62.7	53	45.3	0	0	---	0.00	30.163 
18:25	62.4	62.4	62.4	53	45.0	0	0	---	0.00	30.163 
18:30	62.1	62.1	62.1	54	45.3	0	0	---	0.00	30.163 
18:35	62.0	62.0	62.0	54	45.2	0	0	---	0.00	30.164 
18:40	61.6	61.6	61.6	54	44.8	0	0	---	0.00	30.164 
18:45	61.3	61.3	61.3	55	45.0	0	0	---	0.00	30.167 
18:50	61.0	61.0	61.0	55	44.7	0	0	---	0.00	30.168 
18:55	60.5	60.5	60.5	56	44.7	0	0	---	0.00	30.171 
19:00	60.2	60.2	60.2	56	44.4	0	0	---	0.00	30.172 
19:05	59.9	59.9	59.9	57	44.6	0	0	---	0.00	30.173 
19:10	59.6	59.6	59.6	57	44.3	0	0	---	0.00	30.173 
19:15	59.3	59.3	59.3	58	44.5	0	0	---	0.00	30.174 
19:20	59.0	59.0	59.0	58	44.2	0	0	---	0.00	30.174 
19:25	58.7	58.7	58.7	58	44.0	0	0	---	0.00	30.175 
19:30	58.4	58.4	58.4	59	44.1	0	0	---	0.00	30.174 
19:35	58.1	58.1	58.1	60	44.3	0	0	---	0.00	30.174 
19:40	57.8	57.8	57.8	60	44.0	0	0	---	0.00	30.176 
19:45	57.5	57.5	57.5	60	43.7	0	0	---	0.00	30.177 
19:50	57.3	57.3	57.3	61	44.0	0	0	---	0.00	30.175 
19:55	57.0	57.0	57.0	61	43.7	0	0	---	0.00	30.178 
20:00	56.9	56.9	56.9	62	44.0	0	0	---	0.00	30.179 
20:05	56.6	56.6	56.6	62	43.7	0	0	---	0.00	30.175 
20:10	56.3	56.3	56.3	62	43.4	0	0	---	0.00	30.175 
20:15	56.0	56.0	56.0	64	44.0	0	0	---	0.00	30.178 
20:20	55.7	55.7	55.7	65	44.1	0	0	---	0.00	30.177 
20:25	55.3	55.3	55.3	66	44.1	0	0	---	0.00	30.179 
20:30	55.0	55.0	55.0	66	43.9	0	0	---	0.00	30.179 
20:35	54.7	54.7	54.7	67	44.0	0	0	---	0.00	30.180 
20:40	54.4	54.4	54.4	68	44.1	0	0	---	0.00	30.180 
20:45	54.1	54.1	54.1	69	44.2	0	0	---	0.00	30.181 
20:50	53.8	53.8	53.8	69	43.9	0	0	---	0.00	30.181 
20:55	53.5	53.5	53.5	69	43.6	0	0	---	0.00	30.182 
21:00	53.2	53.2	53.2	70	43.7	0	0	---	0.00	30.182 
21:05	52.9	52.9	52.9	70	43.4	0	0	---	0.00	30.181 
21:10	52.6	52.6	52.6	71	43.5	0	0	---	0.00	30.180 
21:15	52.3	52.3	52.3	72	43.5	0	0	---	0.00	30.180 
21:20	52.0	52.0	52.0	73	43.6	0	0	---	0.00	30.182 
21:25	51.7	51.7	51.7	74	43.7	0	0	---	0.00	30.182 
21:30	51.4	51.4	51.4	74	43.4	0	0	---	0.00	30.183 
21:35	51.1	51.1	51.1	75	43.5	0	0	---	0.00	30.183 
21:40	51.0	51.0	51.0	75	43.4	0	0	---	0.00	30.183 
21:45	50.7	50.7	50.7	76	43.4	0	0	---	0.00	30.183 
21:50	50.4	50.4	50.4	77	43.5	0	0	---	0.00	30.183 
21:55	50.2	50.2	50.2	77	43.3	0	0	---	0.00	30.184 
22:00	50.1	50.1	50.1	78	43.5	0	0	---	0.00	30.183 
22:05	49.8	49.8	49.8	78	43.2	0	0	---	0.00	30.180 
22:10	49.6	49.6	49.6	78	43.0	0	0	---	0.00	30.180 
22:15	49.4	49.4	49.4	78	42.8	0	0	---	0.00	30.182 
22:20	49.1	49.1	49.1	79	42.9	0	0	---	0.00	30.181 
22:25	48.8	48.8	48.8	79	42.6	0	0	---	0.00	30.181 
22:30	48.6	48.6	48.6	80	42.7	0	0	---	0.00	30.181 
22:35	48.5	48.5	48.5	80	42.6	0	0	---	0.00	30.182 
22:40	48.2	48.2	48.2	81	42.6	0	0	---	0.00	30.182 
22:45	48.0	48.0	48.0	81	42.5	0	0	---	0.00	30.182 
22:50	48.0	48.0	48.0	82	42.8	0	0	---	0.00	30.181 
22:55	47.9	47.9	47.9	82	42.7	0	0	---	0.00	30.181 
23:00	47.9	47.9	47.9	83	43.0	0	0	---	0.00	30.181 
23:05	47.7	47.7	47.7	83	42.8	0	0	---	0.00	30.178 
23:10	47.6	47.6	47.6	83	42.7	0	0	---	0.00	30.178 
23:15	47.4	47.4	47.4	83	42.5	0	0	---	0.00	30.179 
23:20	47.1	47.1	47.1	83	42.2	0	0	---	0.00	30.179 
23:25	47.0	47.0	47.0	83	42.1	0	0	---	0.00	30.178 
23:30	47.0	47.0	47.0	84	42.4	0	0	---	0.00	30.179 
23:35	47.0	47.0	47.0	84	42.4	0	0	---	0.00	30.180 
23:40	47.0	47.0	47.0	84	42.4	0	0	---	0.00	30.180 
23:45	47.1	47.1	47.1	83	42.2	0	0	---	0.00	30.181 
23:50	47.3	47.3	47.3	83	42.4	0	0	---	0.00	30.182 
23:55	47.3	47.3	47.3	82	42.1	0	0	---	0.00	30.182 

CoCoRaHS
IN-AL-39
A2 Web Hosting
Creative Commons License
GoDaddy
Look for:

loaded 2017-10-18 22:08:02 • last modified 2010-11-18 10:43:29
Privacy PolicyDisclaimer
• wx.awcolley.com is powered by PmWiki v.2002016 •
• all content (unless otherwise noted) © 2017 A W Colley